sensor_id;sensor_type;location;lat;lon;timestamp;temperature;humidity
21950;DHT22;11139;51.284;7.226;2024-01-07T00:01:25;5.30;99.90
21950;DHT22;11139;51.284;7.226;2024-01-07T00:03:51;5.30;99.90
21950;DHT22;11139;51.284;7.226;2024-01-07T00:06:17;5.30;99.90
21950;DHT22;11139;51.284;7.226;2024-01-07T00:08:42;5.30;99.90
21950;DHT22;11139;51.284;7.226;2024-01-07T00:11:08;5.30;99.90
21950;DHT22;11139;51.284;7.226;2024-01-07T00:13:33;5.30;99.90
21950;DHT22;11139;51.284;7.226;2024-01-07T00:15:59;5.30;99.90
21950;DHT22;11139;51.284;7.226;2024-01-07T00:18:24;5.30;99.90
21950;DHT22;11139;51.284;7.226;2024-01-07T00:20:50;5.30;99.90
21950;DHT22;11139;51.284;7.226;2024-01-07T00:23:15;5.30;99.90
21950;DHT22;11139;51.284;7.226;2024-01-07T00:25:41;5.30;99.90
21950;DHT22;11139;51.284;7.226;2024-01-07T00:28:06;5.30;99.90
21950;DHT22;11139;51.284;7.226;2024-01-07T00:30:32;5.30;99.90
21950;DHT22;11139;51.284;7.226;2024-01-07T00:32:57;5.30;99.90
21950;DHT22;11139;51.284;7.226;2024-01-07T00:35:23;5.30;99.90
21950;DHT22;11139;51.284;7.226;2024-01-07T00:37:48;5.30;99.90
21950;DHT22;11139;51.284;7.226;2024-01-07T00:40:14;5.20;99.90
21950;DHT22;11139;51.284;7.226;2024-01-07T00:42:39;5.30;99.90
21950;DHT22;11139;51.284;7.226;2024-01-07T00:45:05;5.30;99.90
21950;DHT22;11139;51.284;7.226;2024-01-07T00:47:30;5.20;99.90
21950;DHT22;11139;51.284;7.226;2024-01-07T00:49:56;5.30;99.90
21950;DHT22;11139;51.284;7.226;2024-01-07T00:52:21;5.20;99.90
21950;DHT22;11139;51.284;7.226;2024-01-07T00:54:48;5.20;99.90
21950;DHT22;11139;51.284;7.226;2024-01-07T00:57:14;5.20;99.90
21950;DHT22;11139;51.284;7.226;2024-01-07T00:59:39;5.20;99.90
21950;DHT22;11139;51.284;7.226;2024-01-07T01:02:05;5.20;99.90
21950;DHT22;11139;51.284;7.226;2024-01-07T01:04:30;5.20;99.90
21950;DHT22;11139;51.284;7.226;2024-01-07T01:06:57;5.20;99.90
21950;DHT22;11139;51.284;7.226;2024-01-07T01:09:22;5.20;99.90
21950;DHT22;11139;51.284;7.226;2024-01-07T01:11:48;5.20;99.90
21950;DHT22;11139;51.284;7.226;2024-01-07T01:14:15;5.20;99.90
21950;DHT22;11139;51.284;7.226;2024-01-07T01:16:40;5.20;99.90
21950;DHT22;11139;51.284;7.226;2024-01-07T01:19:06;5.20;99.90
21950;DHT22;11139;51.284;7.226;2024-01-07T01:21:31;5.20;99.90
21950;DHT22;11139;51.284;7.226;2024-01-07T01:23:57;5.20;99.90
21950;DHT22;11139;51.284;7.226;2024-01-07T01:26:23;5.10;99.90
21950;DHT22;11139;51.284;7.226;2024-01-07T01:28:48;5.20;99.90
21950;DHT22;11139;51.284;7.226;2024-01-07T01:31:14;5.20;99.90
21950;DHT22;11139;51.284;7.226;2024-01-07T01:33:40;5.20;99.90
21950;DHT22;11139;51.284;7.226;2024-01-07T01:36:05;5.10;99.90
21950;DHT22;11139;51.284;7.226;2024-01-07T01:38:31;5.10;99.90
21950;DHT22;11139;51.284;7.226;2024-01-07T01:40:57;5.10;99.90
21950;DHT22;11139;51.284;7.226;2024-01-07T01:43:25;5.10;99.90
21950;DHT22;11139;51.284;7.226;2024-01-07T01:45:54;5.10;99.90
21950;DHT22;11139;51.284;7.226;2024-01-07T01:48:22;5.10;99.90
21950;DHT22;11139;51.284;7.226;2024-01-07T01:50:48;5.10;99.90
21950;DHT22;11139;51.284;7.226;2024-01-07T01:53:13;5.10;99.90
21950;DHT22;11139;51.284;7.226;2024-01-07T01:55:39;5.10;99.90
21950;DHT22;11139;51.284;7.226;2024-01-07T01:58:05;5.10;99.90
21950;DHT22;11139;51.284;7.226;2024-01-07T02:00:31;5.10;99.90
21950;DHT22;11139;51.284;7.226;2024-01-07T02:02:56;5.10;99.90
21950;DHT22;11139;51.284;7.226;2024-01-07T02:05:22;5.10;99.90
21950;DHT22;11139;51.284;7.226;2024-01-07T02:07:48;5.10;99.90
21950;DHT22;11139;51.284;7.226;2024-01-07T02:10:13;5.10;99.90
21950;DHT22;11139;51.284;7.226;2024-01-07T02:12:39;5.10;99.90
21950;DHT22;11139;51.284;7.226;2024-01-07T02:15:05;5.10;99.90
21950;DHT22;11139;51.284;7.226;2024-01-07T02:17:31;5.10;99.90
21950;DHT22;11139;51.284;7.226;2024-01-07T02:19:56;5.10;99.90
21950;DHT22;11139;51.284;7.226;2024-01-07T02:22:22;5.10;99.90
21950;DHT22;11139;51.284;7.226;2024-01-07T02:24:47;5.10;99.90
21950;DHT22;11139;51.284;7.226;2024-01-07T02:27:13;5.10;99.90
21950;DHT22;11139;51.284;7.226;2024-01-07T02:29:38;5.10;99.90
21950;DHT22;11139;51.284;7.226;2024-01-07T02:32:04;5.10;99.90
21950;DHT22;11139;51.284;7.226;2024-01-07T02:34:30;5.00;99.90
21950;DHT22;11139;51.284;7.226;2024-01-07T02:36:55;5.00;99.90
21950;DHT22;11139;51.284;7.226;2024-01-07T02:39:21;5.00;99.90
21950;DHT22;11139;51.284;7.226;2024-01-07T02:41:46;5.00;99.90
21950;DHT22;11139;51.284;7.226;2024-01-07T02:44:12;5.00;99.90
21950;DHT22;11139;51.284;7.226;2024-01-07T02:46:37;5.00;99.90
21950;DHT22;11139;51.284;7.226;2024-01-07T02:49:03;5.00;99.90
21950;DHT22;11139;51.284;7.226;2024-01-07T02:51:28;5.00;99.90
21950;DHT22;11139;51.284;7.226;2024-01-07T02:53:54;5.00;99.90
21950;DHT22;11139;51.284;7.226;2024-01-07T02:56:19;5.00;99.90
21950;DHT22;11139;51.284;7.226;2024-01-07T02:58:45;5.00;99.90
21950;DHT22;11139;51.284;7.226;2024-01-07T03:01:10;5.00;99.90
21950;DHT22;11139;51.284;7.226;2024-01-07T03:03:36;5.00;99.90
21950;DHT22;11139;51.284;7.226;2024-01-07T03:06:02;5.00;99.90
21950;DHT22;11139;51.284;7.226;2024-01-07T03:08:27;5.00;99.90
21950;DHT22;11139;51.284;7.226;2024-01-07T03:10:54;5.00;99.90
21950;DHT22;11139;51.284;7.226;2024-01-07T03:13:19;5.00;99.90
21950;DHT22;11139;51.284;7.226;2024-01-07T03:15:45;5.00;99.90
21950;DHT22;11139;51.284;7.226;2024-01-07T03:18:10;5.00;99.90
21950;DHT22;11139;51.284;7.226;2024-01-07T03:20:36;4.90;99.90
21950;DHT22;11139;51.284;7.226;2024-01-07T03:23:01;4.90;99.90
21950;DHT22;11139;51.284;7.226;2024-01-07T03:25:27;4.90;99.90
21950;DHT22;11139;51.284;7.226;2024-01-07T03:27:52;4.90;99.90
21950;DHT22;11139;51.284;7.226;2024-01-07T03:30:18;4.90;99.90
21950;DHT22;11139;51.284;7.226;2024-01-07T03:32:43;4.90;99.90
21950;DHT22;11139;51.284;7.226;2024-01-07T03:35:09;4.90;99.90
21950;DHT22;11139;51.284;7.226;2024-01-07T03:37:35;4.90;99.90
21950;DHT22;11139;51.284;7.226;2024-01-07T03:40:00;4.90;99.90
21950;DHT22;11139;51.284;7.226;2024-01-07T03:42:26;4.90;99.90
21950;DHT22;11139;51.284;7.226;2024-01-07T03:44:51;4.90;99.90
21950;DHT22;11139;51.284;7.226;2024-01-07T03:47:17;4.90;99.90
21950;DHT22;11139;51.284;7.226;2024-01-07T03:49:42;4.90;99.90
21950;DHT22;11139;51.284;7.226;2024-01-07T03:52:08;4.90;99.90
21950;DHT22;11139;51.284;7.226;2024-01-07T03:54:33;4.80;99.90
21950;DHT22;11139;51.284;7.226;2024-01-07T03:56:59;4.90;99.90
21950;DHT22;11139;51.284;7.226;2024-01-07T03:59:25;4.80;99.90
21950;DHT22;11139;51.284;7.226;2024-01-07T04:01:52;4.80;99.90
21950;DHT22;11139;51.284;7.226;2024-01-07T04:04:18;4.80;99.90
21950;DHT22;11139;51.284;7.226;2024-01-07T04:06:43;4.90;99.90
21950;DHT22;11139;51.284;7.226;2024-01-07T04:09:09;4.90;99.90
21950;DHT22;11139;51.284;7.226;2024-01-07T04:11:43;4.80;99.90
21950;DHT22;11139;51.284;7.226;2024-01-07T04:14:09;4.80;99.90
21950;DHT22;11139;51.284;7.226;2024-01-07T04:16:35;4.80;99.90
21950;DHT22;11139;51.284;7.226;2024-01-07T04:19:01;4.90;99.90
21950;DHT22;11139;51.284;7.226;2024-01-07T04:21:26;4.80;99.90
21950;DHT22;11139;51.284;7.226;2024-01-07T04:23:52;4.80;99.90
21950;DHT22;11139;51.284;7.226;2024-01-07T04:26:17;4.80;99.90
21950;DHT22;11139;51.284;7.226;2024-01-07T04:28:43;4.80;99.90
21950;DHT22;11139;51.284;7.226;2024-01-07T04:31:09;4.80;99.90
21950;DHT22;11139;51.284;7.226;2024-01-07T04:33:34;4.80;99.90
21950;DHT22;11139;51.284;7.226;2024-01-07T04:36:00;4.80;99.90
21950;DHT22;11139;51.284;7.226;2024-01-07T04:38:26;4.80;99.90
21950;DHT22;11139;51.284;7.226;2024-01-07T04:40:52;4.80;99.90
21950;DHT22;11139;51.284;7.226;2024-01-07T04:43:18;4.80;99.90
21950;DHT22;11139;51.284;7.226;2024-01-07T04:45:43;4.80;99.90
21950;DHT22;11139;51.284;7.226;2024-01-07T04:48:09;4.80;99.90
21950;DHT22;11139;51.284;7.226;2024-01-07T04:50:34;4.80;99.90
21950;DHT22;11139;51.284;7.226;2024-01-07T04:53:00;4.80;99.90
21950;DHT22;11139;51.284;7.226;2024-01-07T04:55:25;4.80;99.90
21950;DHT22;11139;51.284;7.226;2024-01-07T04:57:51;4.80;99.90
21950;DHT22;11139;51.284;7.226;2024-01-07T05:00:16;4.70;99.90
21950;DHT22;11139;51.284;7.226;2024-01-07T05:02:42;4.70;99.90
21950;DHT22;11139;51.284;7.226;2024-01-07T05:05:08;4.70;99.90
21950;DHT22;11139;51.284;7.226;2024-01-07T05:07:34;4.70;99.90
21950;DHT22;11139;51.284;7.226;2024-01-07T05:09:59;4.70;99.90
21950;DHT22;11139;51.284;7.226;2024-01-07T05:12:25;4.70;99.90
21950;DHT22;11139;51.284;7.226;2024-01-07T05:14:51;4.70;99.90
21950;DHT22;11139;51.284;7.226;2024-01-07T05:17:17;4.70;99.90
21950;DHT22;11139;51.284;7.226;2024-01-07T05:19:43;4.70;99.90
21950;DHT22;11139;51.284;7.226;2024-01-07T05:22:08;4.70;99.90
21950;DHT22;11139;51.284;7.226;2024-01-07T05:24:36;4.70;99.90
21950;DHT22;11139;51.284;7.226;2024-01-07T05:27:01;4.70;99.90
21950;DHT22;11139;51.284;7.226;2024-01-07T05:29:27;4.70;99.90
21950;DHT22;11139;51.284;7.226;2024-01-07T05:31:52;4.60;99.90
21950;DHT22;11139;51.284;7.226;2024-01-07T05:34:18;4.60;99.90
21950;DHT22;11139;51.284;7.226;2024-01-07T05:36:43;4.60;99.90
21950;DHT22;11139;51.284;7.226;2024-01-07T05:39:09;4.60;99.90
21950;DHT22;11139;51.284;7.226;2024-01-07T05:41:36;4.70;99.90
21950;DHT22;11139;51.284;7.226;2024-01-07T05:44:01;4.60;99.90
21950;DHT22;11139;51.284;7.226;2024-01-07T05:46:27;4.60;99.90
21950;DHT22;11139;51.284;7.226;2024-01-07T05:48:54;4.60;99.90
21950;DHT22;11139;51.284;7.226;2024-01-07T05:51:19;4.60;99.90
21950;DHT22;11139;51.284;7.226;2024-01-07T05:53:45;4.60;99.90
21950;DHT22;11139;51.284;7.226;2024-01-07T05:56:11;4.60;99.90
21950;DHT22;11139;51.284;7.226;2024-01-07T05:58:37;4.60;99.90
21950;DHT22;11139;51.284;7.226;2024-01-07T06:01:02;4.50;99.90
21950;DHT22;11139;51.284;7.226;2024-01-07T06:03:28;4.50;99.90
21950;DHT22;11139;51.284;7.226;2024-01-07T06:05:53;4.50;99.90
21950;DHT22;11139;51.284;7.226;2024-01-07T06:08:19;4.50;99.90
21950;DHT22;11139;51.284;7.226;2024-01-07T06:10:44;4.50;99.90
21950;DHT22;11139;51.284;7.226;2024-01-07T06:13:10;4.50;99.90
21950;DHT22;11139;51.284;7.226;2024-01-07T06:15:35;4.60;99.90
21950;DHT22;11139;51.284;7.226;2024-01-07T06:18:01;4.50;99.90
21950;DHT22;11139;51.284;7.226;2024-01-07T06:20:26;4.50;99.90
21950;DHT22;11139;51.284;7.226;2024-01-07T06:22:52;4.50;99.90
21950;DHT22;11139;51.284;7.226;2024-01-07T06:25:18;4.50;99.90
21950;DHT22;11139;51.284;7.226;2024-01-07T06:27:43;4.50;99.90
21950;DHT22;11139;51.284;7.226;2024-01-07T06:30:09;4.50;99.90
21950;DHT22;11139;51.284;7.226;2024-01-07T06:32:34;4.50;99.90
21950;DHT22;11139;51.284;7.226;2024-01-07T06:35:01;4.50;99.90
21950;DHT22;11139;51.284;7.226;2024-01-07T06:37:26;4.50;99.90
21950;DHT22;11139;51.284;7.226;2024-01-07T06:39:54;4.50;99.90
21950;DHT22;11139;51.284;7.226;2024-01-07T06:42:20;4.50;99.90
21950;DHT22;11139;51.284;7.226;2024-01-07T06:44:45;4.50;99.90
21950;DHT22;11139;51.284;7.226;2024-01-07T06:47:11;4.50;99.90
21950;DHT22;11139;51.284;7.226;2024-01-07T06:49:36;4.50;99.90
21950;DHT22;11139;51.284;7.226;2024-01-07T06:52:02;4.50;99.90
21950;DHT22;11139;51.284;7.226;2024-01-07T06:54:27;4.40;99.90
21950;DHT22;11139;51.284;7.226;2024-01-07T06:56:53;4.40;99.90
21950;DHT22;11139;51.284;7.226;2024-01-07T06:59:18;4.40;99.90
21950;DHT22;11139;51.284;7.226;2024-01-07T07:01:44;4.50;99.90
21950;DHT22;11139;51.284;7.226;2024-01-07T07:04:09;4.40;99.90
21950;DHT22;11139;51.284;7.226;2024-01-07T07:06:35;4.40;99.90
21950;DHT22;11139;51.284;7.226;2024-01-07T07:09:00;4.40;99.90
21950;DHT22;11139;51.284;7.226;2024-01-07T07:11:26;4.40;99.90
21950;DHT22;11139;51.284;7.226;2024-01-07T07:13:51;4.30;99.90
21950;DHT22;11139;51.284;7.226;2024-01-07T07:16:17;4.40;99.90
21950;DHT22;11139;51.284;7.226;2024-01-07T07:18:42;4.40;99.90
21950;DHT22;11139;51.284;7.226;2024-01-07T07:21:08;4.40;99.90
21950;DHT22;11139;51.284;7.226;2024-01-07T07:23:33;4.40;99.90
21950;DHT22;11139;51.284;7.226;2024-01-07T07:25:59;4.40;99.90
21950;DHT22;11139;51.284;7.226;2024-01-07T07:28:25;4.40;99.90
21950;DHT22;11139;51.284;7.226;2024-01-07T07:30:50;4.30;99.90
21950;DHT22;11139;51.284;7.226;2024-01-07T07:33:16;4.40;99.90
21950;DHT22;11139;51.284;7.226;2024-01-07T07:35:42;4.30;99.90
21950;DHT22;11139;51.284;7.226;2024-01-07T07:38:07;4.30;99.90
21950;DHT22;11139;51.284;7.226;2024-01-07T07:40:33;4.30;99.90
21950;DHT22;11139;51.284;7.226;2024-01-07T07:42:58;4.30;99.90
21950;DHT22;11139;51.284;7.226;2024-01-07T07:45:24;4.30;99.90
21950;DHT22;11139;51.284;7.226;2024-01-07T07:47:49;4.30;99.90
21950;DHT22;11139;51.284;7.226;2024-01-07T07:50:15;4.30;99.90
21950;DHT22;11139;51.284;7.226;2024-01-07T07:52:44;4.30;99.90
21950;DHT22;11139;51.284;7.226;2024-01-07T07:55:09;4.30;99.90
21950;DHT22;11139;51.284;7.226;2024-01-07T07:57:35;4.30;99.90
21950;DHT22;11139;51.284;7.226;2024-01-07T08:00:01;4.30;99.90
21950;DHT22;11139;51.284;7.226;2024-01-07T08:02:27;4.30;99.90
21950;DHT22;11139;51.284;7.226;2024-01-07T08:04:52;4.30;99.90
21950;DHT22;11139;51.284;7.226;2024-01-07T08:07:18;4.30;99.90
21950;DHT22;11139;51.284;7.226;2024-01-07T08:09:43;4.30;99.90
21950;DHT22;11139;51.284;7.226;2024-01-07T08:12:09;4.30;99.90
21950;DHT22;11139;51.284;7.226;2024-01-07T08:14:37;4.20;99.90
21950;DHT22;11139;51.284;7.226;2024-01-07T08:17:06;4.20;99.90
21950;DHT22;11139;51.284;7.226;2024-01-07T08:19:32;4.30;99.90
21950;DHT22;11139;51.284;7.226;2024-01-07T08:21:57;4.30;99.90
21950;DHT22;11139;51.284;7.226;2024-01-07T08:24:23;4.20;99.90
21950;DHT22;11139;51.284;7.226;2024-01-07T08:26:48;4.20;99.90
21950;DHT22;11139;51.284;7.226;2024-01-07T08:29:14;4.20;99.90
21950;DHT22;11139;51.284;7.226;2024-01-07T08:31:39;4.20;99.90
21950;DHT22;11139;51.284;7.226;2024-01-07T08:34:05;4.30;99.90
21950;DHT22;11139;51.284;7.226;2024-01-07T08:36:31;4.20;99.90
21950;DHT22;11139;51.284;7.226;2024-01-07T08:38:57;4.20;99.90
21950;DHT22;11139;51.284;7.226;2024-01-07T08:41:22;4.20;99.90
21950;DHT22;11139;51.284;7.226;2024-01-07T08:43:47;4.20;99.90
21950;DHT22;11139;51.284;7.226;2024-01-07T08:46:13;4.20;99.90
21950;DHT22;11139;51.284;7.226;2024-01-07T08:48:39;4.20;99.90
21950;DHT22;11139;51.284;7.226;2024-01-07T08:51:05;4.20;99.90
21950;DHT22;11139;51.284;7.226;2024-01-07T08:53:31;4.10;99.90
21950;DHT22;11139;51.284;7.226;2024-01-07T08:55:56;4.20;99.90
21950;DHT22;11139;51.284;7.226;2024-01-07T08:58:22;4.20;99.90
21950;DHT22;11139;51.284;7.226;2024-01-07T09:00:47;4.20;99.90
21950;DHT22;11139;51.284;7.226;2024-01-07T09:03:13;4.20;99.90
21950;DHT22;11139;51.284;7.226;2024-01-07T09:05:38;4.10;99.90
21950;DHT22;11139;51.284;7.226;2024-01-07T09:08:04;4.10;99.90
21950;DHT22;11139;51.284;7.226;2024-01-07T09:10:31;4.10;99.90
21950;DHT22;11139;51.284;7.226;2024-01-07T09:12:56;4.10;99.90
21950;DHT22;11139;51.284;7.226;2024-01-07T09:15:23;4.10;99.90
21950;DHT22;11139;51.284;7.226;2024-01-07T09:17:48;4.10;99.90
21950;DHT22;11139;51.284;7.226;2024-01-07T09:20:14;4.10;99.90
21950;DHT22;11139;51.284;7.226;2024-01-07T09:22:40;4.10;99.90
21950;DHT22;11139;51.284;7.226;2024-01-07T09:25:05;4.10;99.90
21950;DHT22;11139;51.284;7.226;2024-01-07T09:27:32;4.00;99.90
21950;DHT22;11139;51.284;7.226;2024-01-07T09:29:57;4.10;99.90
21950;DHT22;11139;51.284;7.226;2024-01-07T09:32:23;4.00;99.90
21950;DHT22;11139;51.284;7.226;2024-01-07T09:34:48;4.00;99.90
21950;DHT22;11139;51.284;7.226;2024-01-07T09:37:14;4.00;99.90
21950;DHT22;11139;51.284;7.226;2024-01-07T09:39:40;4.00;99.90
21950;DHT22;11139;51.284;7.226;2024-01-07T09:42:15;4.00;99.90
21950;DHT22;11139;51.284;7.226;2024-01-07T09:44:41;4.00;99.90
21950;DHT22;11139;51.284;7.226;2024-01-07T09:47:11;4.00;99.90
21950;DHT22;11139;51.284;7.226;2024-01-07T09:49:37;4.00;99.90
21950;DHT22;11139;51.284;7.226;2024-01-07T09:52:03;3.90;99.90
21950;DHT22;11139;51.284;7.226;2024-01-07T09:54:29;4.00;99.90
21950;DHT22;11139;51.284;7.226;2024-01-07T09:56:55;3.90;99.90
21950;DHT22;11139;51.284;7.226;2024-01-07T09:59:23;3.90;99.90
21950;DHT22;11139;51.284;7.226;2024-01-07T10:01:49;3.90;99.90
21950;DHT22;11139;51.284;7.226;2024-01-07T10:04:15;3.90;99.90
21950;DHT22;11139;51.284;7.226;2024-01-07T10:06:41;3.90;99.90
21950;DHT22;11139;51.284;7.226;2024-01-07T10:09:06;3.80;99.90
21950;DHT22;11139;51.284;7.226;2024-01-07T10:11:32;3.80;99.90
21950;DHT22;11139;51.284;7.226;2024-01-07T10:13:58;3.80;99.90
21950;DHT22;11139;51.284;7.226;2024-01-07T10:16:23;3.90;99.90
21950;DHT22;11139;51.284;7.226;2024-01-07T10:18:49;3.80;99.90
21950;DHT22;11139;51.284;7.226;2024-01-07T10:21:14;3.80;99.90
21950;DHT22;11139;51.284;7.226;2024-01-07T10:23:40;3.80;99.90
21950;DHT22;11139;51.284;7.226;2024-01-07T10:26:05;3.80;99.90
21950;DHT22;11139;51.284;7.226;2024-01-07T10:28:31;3.70;99.90
21950;DHT22;11139;51.284;7.226;2024-01-07T10:30:57;3.80;99.90
21950;DHT22;11139;51.284;7.226;2024-01-07T10:33:22;3.80;99.90
21950;DHT22;11139;51.284;7.226;2024-01-07T10:35:52;3.80;99.90
21950;DHT22;11139;51.284;7.226;2024-01-07T10:38:19;3.80;99.90
21950;DHT22;11139;51.284;7.226;2024-01-07T10:40:44;3.70;99.90
21950;DHT22;11139;51.284;7.226;2024-01-07T10:43:10;3.80;99.90
21950;DHT22;11139;51.284;7.226;2024-01-07T10:45:37;3.80;99.90
21950;DHT22;11139;51.284;7.226;2024-01-07T10:48:04;3.70;99.90
21950;DHT22;11139;51.284;7.226;2024-01-07T10:50:31;3.70;99.90
21950;DHT22;11139;51.284;7.226;2024-01-07T10:52:58;3.80;99.90
21950;DHT22;11139;51.284;7.226;2024-01-07T10:55:25;3.70;99.90
21950;DHT22;11139;51.284;7.226;2024-01-07T10:57:51;3.70;99.90
21950;DHT22;11139;51.284;7.226;2024-01-07T11:00:19;3.70;99.90
21950;DHT22;11139;51.284;7.226;2024-01-07T11:05:27;3.70;99.90
21950;DHT22;11139;51.284;7.226;2024-01-07T11:08:01;3.70;99.90
21950;DHT22;11139;51.284;7.226;2024-01-07T11:10:34;3.70;99.90
21950;DHT22;11139;51.284;7.226;2024-01-07T11:13:02;3.70;99.90
21950;DHT22;11139;51.284;7.226;2024-01-07T11:18:16;3.70;99.90
21950;DHT22;11139;51.284;7.226;2024-01-07T11:20:42;3.70;99.90
21950;DHT22;11139;51.284;7.226;2024-01-07T11:25:59;3.70;99.90
21950;DHT22;11139;51.284;7.226;2024-01-07T11:31:09;3.70;99.90
21950;DHT22;11139;51.284;7.226;2024-01-07T11:33:38;3.70;99.90
21950;DHT22;11139;51.284;7.226;2024-01-07T11:36:06;3.60;99.90
21950;DHT22;11139;51.284;7.226;2024-01-07T11:38:35;3.60;99.90
21950;DHT22;11139;51.284;7.226;2024-01-07T11:41:04;3.60;99.90
21950;DHT22;11139;51.284;7.226;2024-01-07T11:43:31;3.60;99.90
21950;DHT22;11139;51.284;7.226;2024-01-07T11:45:56;3.60;99.90
21950;DHT22;11139;51.284;7.226;2024-01-07T11:48:22;3.50;99.90
21950;DHT22;11139;51.284;7.226;2024-01-07T11:50:47;3.50;99.90
21950;DHT22;11139;51.284;7.226;2024-01-07T11:53:13;3.50;99.90
21950;DHT22;11139;51.284;7.226;2024-01-07T11:55:38;3.50;99.90
21950;DHT22;11139;51.284;7.226;2024-01-07T11:58:04;3.50;99.90
21950;DHT22;11139;51.284;7.226;2024-01-07T12:00:33;3.40;99.90
21950;DHT22;11139;51.284;7.226;2024-01-07T12:03:02;3.40;99.90
21950;DHT22;11139;51.284;7.226;2024-01-07T12:05:28;3.40;99.90
21950;DHT22;11139;51.284;7.226;2024-01-07T12:07:53;3.50;99.90
21950;DHT22;11139;51.284;7.226;2024-01-07T12:10:19;3.50;99.90
21950;DHT22;11139;51.284;7.226;2024-01-07T12:12:45;3.50;99.90
21950;DHT22;11139;51.284;7.226;2024-01-07T12:15:12;3.50;99.90
21950;DHT22;11139;51.284;7.226;2024-01-07T12:17:40;3.50;99.90
21950;DHT22;11139;51.284;7.226;2024-01-07T12:20:07;3.50;99.90
21950;DHT22;11139;51.284;7.226;2024-01-07T12:22:37;3.40;99.90
21950;DHT22;11139;51.284;7.226;2024-01-07T12:25:03;3.40;99.90
21950;DHT22;11139;51.284;7.226;2024-01-07T12:27:29;3.40;99.90
21950;DHT22;11139;51.284;7.226;2024-01-07T12:29:58;3.50;99.90
21950;DHT22;11139;51.284;7.226;2024-01-07T12:32:29;3.50;99.90
21950;DHT22;11139;51.284;7.226;2024-01-07T12:34:58;3.50;99.90
21950;DHT22;11139;51.284;7.226;2024-01-07T12:37:27;3.50;99.90
21950;DHT22;11139;51.284;7.226;2024-01-07T12:39:53;3.40;99.90
21950;DHT22;11139;51.284;7.226;2024-01-07T12:42:19;3.40;99.90
21950;DHT22;11139;51.284;7.226;2024-01-07T12:44:45;3.40;99.90
21950;DHT22;11139;51.284;7.226;2024-01-07T12:47:10;3.40;99.90
21950;DHT22;11139;51.284;7.226;2024-01-07T12:49:36;3.40;99.90
21950;DHT22;11139;51.284;7.226;2024-01-07T12:52:01;3.40;99.90
21950;DHT22;11139;51.284;7.226;2024-01-07T12:54:27;3.40;99.90
21950;DHT22;11139;51.284;7.226;2024-01-07T12:56:52;3.30;99.90
21950;DHT22;11139;51.284;7.226;2024-01-07T12:59:18;3.30;99.90
21950;DHT22;11139;51.284;7.226;2024-01-07T13:01:44;3.40;99.90
21950;DHT22;11139;51.284;7.226;2024-01-07T13:04:09;3.40;99.90
21950;DHT22;11139;51.284;7.226;2024-01-07T13:06:35;3.40;99.90
21950;DHT22;11139;51.284;7.226;2024-01-07T13:09:00;3.40;99.90
21950;DHT22;11139;51.284;7.226;2024-01-07T13:11:29;3.30;99.90
21950;DHT22;11139;51.284;7.226;2024-01-07T13:13:55;3.30;99.90
21950;DHT22;11139;51.284;7.226;2024-01-07T13:16:24;3.30;99.90
21950;DHT22;11139;51.284;7.226;2024-01-07T13:18:50;3.30;99.90
21950;DHT22;11139;51.284;7.226;2024-01-07T13:21:16;3.20;99.90
21950;DHT22;11139;51.284;7.226;2024-01-07T13:23:43;3.30;99.90
21950;DHT22;11139;51.284;7.226;2024-01-07T13:26:12;3.30;99.90
21950;DHT22;11139;51.284;7.226;2024-01-07T13:28:37;3.30;99.90
21950;DHT22;11139;51.284;7.226;2024-01-07T13:31:03;3.30;99.90
21950;DHT22;11139;51.284;7.226;2024-01-07T13:33:29;3.30;99.90
21950;DHT22;11139;51.284;7.226;2024-01-07T13:35:55;3.20;99.90
21950;DHT22;11139;51.284;7.226;2024-01-07T13:38:21;3.20;99.90
21950;DHT22;11139;51.284;7.226;2024-01-07T13:40:47;3.20;99.90
21950;DHT22;11139;51.284;7.226;2024-01-07T13:43:12;3.20;99.90
21950;DHT22;11139;51.284;7.226;2024-01-07T13:45:38;3.20;99.90
21950;DHT22;11139;51.284;7.226;2024-01-07T13:48:03;3.20;99.90
21950;DHT22;11139;51.284;7.226;2024-01-07T13:50:29;3.20;99.90
21950;DHT22;11139;51.284;7.226;2024-01-07T13:52:54;3.20;99.90
21950;DHT22;11139;51.284;7.226;2024-01-07T13:55:20;3.10;99.90
21950;DHT22;11139;51.284;7.226;2024-01-07T13:57:45;3.00;99.90
21950;DHT22;11139;51.284;7.226;2024-01-07T14:00:11;3.10;99.90
21950;DHT22;11139;51.284;7.226;2024-01-07T14:02:43;3.00;99.90
21950;DHT22;11139;51.284;7.226;2024-01-07T14:05:10;3.00;99.90
21950;DHT22;11139;51.284;7.226;2024-01-07T14:07:37;3.00;99.90
21950;DHT22;11139;51.284;7.226;2024-01-07T14:10:03;3.00;99.90
21950;DHT22;11139;51.284;7.226;2024-01-07T14:12:30;3.00;99.90
21950;DHT22;11139;51.284;7.226;2024-01-07T14:14:55;3.00;99.90
21950;DHT22;11139;51.284;7.226;2024-01-07T14:17:21;3.00;99.90
21950;DHT22;11139;51.284;7.226;2024-01-07T14:19:46;3.00;99.90
21950;DHT22;11139;51.284;7.226;2024-01-07T14:22:13;3.00;99.90
21950;DHT22;11139;51.284;7.226;2024-01-07T14:24:39;2.90;99.90
21950;DHT22;11139;51.284;7.226;2024-01-07T14:27:04;2.90;99.90
21950;DHT22;11139;51.284;7.226;2024-01-07T14:29:30;2.90;99.90
21950;DHT22;11139;51.284;7.226;2024-01-07T14:31:55;2.90;99.90
21950;DHT22;11139;51.284;7.226;2024-01-07T14:34:20;2.90;99.90
21950;DHT22;11139;51.284;7.226;2024-01-07T14:36:46;2.90;99.90
21950;DHT22;11139;51.284;7.226;2024-01-07T14:39:11;2.90;99.90
21950;DHT22;11139;51.284;7.226;2024-01-07T14:41:39;2.80;99.90
21950;DHT22;11139;51.284;7.226;2024-01-07T14:44:05;2.80;99.90
21950;DHT22;11139;51.284;7.226;2024-01-07T14:46:30;2.80;99.90
21950;DHT22;11139;51.284;7.226;2024-01-07T14:48:56;2.90;99.90
21950;DHT22;11139;51.284;7.226;2024-01-07T14:51:21;2.80;99.90
21950;DHT22;11139;51.284;7.226;2024-01-07T14:53:47;2.90;99.90
21950;DHT22;11139;51.284;7.226;2024-01-07T14:56:12;2.90;99.90
21950;DHT22;11139;51.284;7.226;2024-01-07T14:58:38;2.90;99.90
21950;DHT22;11139;51.284;7.226;2024-01-07T15:01:04;2.80;99.90
21950;DHT22;11139;51.284;7.226;2024-01-07T15:03:29;2.80;99.90
21950;DHT22;11139;51.284;7.226;2024-01-07T15:05:55;2.80;99.90
21950;DHT22;11139;51.284;7.226;2024-01-07T15:08:21;2.70;99.90
21950;DHT22;11139;51.284;7.226;2024-01-07T15:10:47;2.70;99.90
21950;DHT22;11139;51.284;7.226;2024-01-07T15:13:12;2.70;99.90
21950;DHT22;11139;51.284;7.226;2024-01-07T15:15:38;2.70;99.90
21950;DHT22;11139;51.284;7.226;2024-01-07T15:18:03;2.70;99.90
21950;DHT22;11139;51.284;7.226;2024-01-07T15:20:29;2.70;99.90
21950;DHT22;11139;51.284;7.226;2024-01-07T15:22:55;2.80;99.90
21950;DHT22;11139;51.284;7.226;2024-01-07T15:25:20;2.80;99.90
21950;DHT22;11139;51.284;7.226;2024-01-07T15:27:46;2.70;99.90
21950;DHT22;11139;51.284;7.226;2024-01-07T15:30:11;2.70;99.90
21950;DHT22;11139;51.284;7.226;2024-01-07T15:32:37;2.70;99.90
21950;DHT22;11139;51.284;7.226;2024-01-07T15:35:03;2.70;99.90
21950;DHT22;11139;51.284;7.226;2024-01-07T15:37:30;2.60;99.90
21950;DHT22;11139;51.284;7.226;2024-01-07T15:39:56;2.60;99.90
21950;DHT22;11139;51.284;7.226;2024-01-07T15:42:21;2.60;99.90
21950;DHT22;11139;51.284;7.226;2024-01-07T15:44:48;2.70;99.90
21950;DHT22;11139;51.284;7.226;2024-01-07T15:47:13;2.70;99.90